Latest Weather Observations for Mount Boyce

IDN60901

Issued at 5:22 pm EST Sunday 11 April 2021 (issued every 10 minutes, with the page automatically refreshed every 10 minutes)

About weather observations | Map of Sydney area stations | Latest observations for Sydney area | Other Formats
Station Details ID: 063292 Name: MOUNT BOYCE AWS Lat: -33.62 Lon: 150.27 Height: 1080.0 m
Data from the previous 72 hours. | See also: Recent months at Mount Boyce
Date/Time
EST
Temp
°C
App
Temp
°C
Dew
Point
°C
Rel
Hum
%
Delta-T
°C
Wind Press
QNH
hPa
Press
MSL
hPa
Rain since
9am
mm
Dir  Spd
km/h
Gust
km/h
Spd
kts
Gust
kts
11/05:00pm 6.4 -3.7 -2.5 53 3.5 WSW 41 65 22 35 - - 0.0
11/04:30pm 7.2 -3.3 -2.2 51 3.7 WSW 43 65 23 35 - - 0.0
11/04:00pm 7.8 -1.1 -2.0 50 3.9 WSW 35 56 19 30 - - 0.0
11/03:30pm 7.7 -2.0 -2.3 49 4.0 WSW 39 61 21 33 - - 0.0
11/03:00pm 8.1 -1.6 -2.2 48 4.1 WSW 39 59 21 32 - - 0.0
11/02:30pm 7.9 -1.8 -1.9 50 3.9 W 39 67 21 36 - - 0.0
11/02:00pm 8.0 -1.2 -1.5 51 3.9 WSW 37 59 20 32 - - 0.0
11/01:30pm 7.3 -3.2 -2.4 50 3.8 WSW 43 65 23 35 - - 0.0
11/01:00pm 7.1 -2.6 -2.6 50 3.8 WSW 39 70 21 38 - - 0.0
11/12:30pm 7.2 -1.1 -2.0 52 3.7 WSW 32 56 17 30 - - 0.0
11/12:00pm 6.8 -2.4 -1.6 55 3.4 WSW 37 63 20 34 - - 0.0
11/11:30am 6.5 -4.2 -2.9 51 3.6 WSW 44 70 24 38 - - 0.0
11/11:00am 6.5 -3.1 -1.6 56 3.2 WSW 39 57 21 31 - - 0.0
11/10:30am 6.0 -4.5 -2.8 53 3.4 WSW 43 63 23 34 - - 0.0
11/10:00am 5.9 -4.6 -2.2 56 3.2 WSW 43 74 23 40 - - 0.0
11/09:30am 5.6 -4.4 -1.8 59 2.9 WSW 41 61 22 33 - - 0.0
11/09:00am 5.4 -3.7 -0.8 64 2.5 WSW 37 56 20 30 - - 0.0
11/08:30am 4.9 -3.8 -0.5 68 2.2 WSW 35 54 19 29 - - 0.0
11/08:02am 5.2 -3.9 -0.4 67 2.3 WSW 37 56 20 30 - - 0.0
11/08:00am 5.2 -3.4 0.0 69 2.1 WSW 35 52 19 28 - - 0.0
11/07:30am 4.9 -4.9 -0.3 69 2.1 WSW 41 63 22 34 - - 0.0
11/07:00am 5.2 -5.2 -0.6 66 2.3 WSW 44 70 24 38 - - 0.0
11/06:30am 5.6 -4.1 0.4 69 2.2 WSW 41 63 22 34 - - 0.0
11/06:00am 5.8 -2.7 1.2 72 2.0 WSW 35 56 19 30 - - 0.0
11/05:30am 6.1 -3.0 1.6 73 1.9 WSW 39 63 21 34 - - 0.0
11/05:01am 6.1 -1.5 2.9 80 1.4 W 32 50 17 27 - - 0.0
11/05:00am 6.1 -1.5 3.1 81 1.3 W 32 46 17 25 - - 0.0
11/04:30am 6.2 -1.3 3.4 82 1.3 W 32 52 17 28 - - 0.0
11/04:00am 6.0 -1.1 3.7 85 1.0 W 30 50 16 27 - - 0.0
11/03:33am 6.2 -1.3 3.7 84 1.1 W 32 50 17 27 - - 0.0
11/03:30am 6.2 -0.8 3.9 85 1.0 W 30 46 16 25 - - 0.0
11/03:00am 6.3 -0.7 4.0 85 1.0 W 30 48 16 26 - - 0.0
11/02:30am 6.7 -0.2 4.4 85 1.1 W 30 48 16 26 - - 0.0
11/02:16am 6.6 0.0 4.3 85 1.1 WSW 28 46 15 25 - - 0.0
11/02:00am 6.5 0.3 4.2 85 1.1 WSW 26 43 14 23 - - 0.0
11/01:57am 6.5 -0.1 4.2 85 1.1 WSW 28 46 15 25 - - 0.0
11/01:30am 6.4 0.2 4.1 85 1.1 WSW 26 39 14 21 - - 0.0
11/01:00am 6.3 0.0 4.0 85 1.0 WSW 26 37 14 20 - - 0.0
11/12:30am 6.3 0.4 3.8 84 1.1 W 24 35 13 19 - - 0.0
11/12:00am 6.7 -0.4 3.7 81 1.4 W 30 44 16 24 - - 0.0
 
Date/Time
EST
Temp
°C
App
Temp
°C
Dew
Point
°C
Rel
Hum
%
Delta-T
°C
Wind Press
QNH
hPa
Press
MSL
hPa
Rain since
9am
mm
Dir  Spd
km/h
Gust
km/h
Spd
kts
Gust
kts
10/11:52pm 6.7 0.0 3.5 80 1.4 W 28 46 15 25 - - 0.0
10/11:30pm 6.8 0.0 3.2 78 1.6 WSW 28 43 15 23 - - 0.0
10/11:29pm 6.9 0.1 3.3 78 1.6 WSW 28 46 15 25 - - 0.0
10/11:00pm 7.0 1.0 3.3 77 1.7 W 24 39 13 21 - - 0.0
10/10:50pm 7.1 0.3 3.2 76 1.8 W 28 46 15 25 - - 0.0
10/10:30pm 7.1 1.5 3.2 76 1.8 W 22 37 12 20 - - 0.0
10/10:00pm 7.1 1.5 3.3 77 1.7 WSW 22 41 12 22 - - 0.0
10/09:30pm 7.1 0.7 3.2 76 1.8 WSW 26 43 14 23 - - 0.0
10/09:00pm 7.3 0.5 3.0 74 1.9 WSW 28 52 15 28 - - 0.0
10/08:32pm 7.7 0.0 3.4 74 2.0 WSW 33 52 18 28 - - 0.0
10/08:30pm 7.6 0.1 3.3 74 2.0 WSW 32 46 17 25 - - 0.0
10/08:00pm 7.7 0.2 3.6 75 1.9 WSW 32 44 17 24 - - 0.0
10/07:30pm 7.9 1.2 3.4 73 2.1 WSW 28 35 15 19 - - 0.0
10/07:00pm 8.2 1.8 3.3 71 2.2 WSW 26 43 14 23 - - 0.0
10/06:30pm 8.5 1.7 3.1 69 2.5 WSW 28 44 15 24 - - 0.0
10/06:10pm 8.8 1.7 3.4 69 2.5 WSW 30 48 16 26 - - 0.0
10/06:00pm 8.9 1.4 3.3 68 2.6 WSW 32 46 17 25 - - 0.0
10/05:30pm 9.3 1.8 3.5 67 2.7 WSW 32 50 17 27 - - 0.0
10/05:05pm 10.4 3.3 3.7 63 3.1 WSW 30 48 16 26 - - 0.0
10/05:00pm 10.5 3.5 4.0 64 3.1 WSW 30 44 16 24 - - 0.0
10/04:31pm 10.8 3.3 3.6 61 3.4 WSW 32 52 17 28 - - 0.0
10/04:30pm 10.9 3.8 3.7 61 3.4 WSW 30 44 16 24 - - 0.0
10/04:02pm 10.3 2.8 3.3 62 3.3 WSW 32 50 17 27 - - 0.0
10/04:00pm 10.3 2.9 3.8 64 3.1 WSW 32 46 17 25 - - 0.0
10/03:30pm 10.7 3.6 3.7 62 3.3 WSW 30 56 16 30 - - 0.0
10/03:03pm 11.2 3.1 3.3 58 3.7 WSW 35 54 19 29 - - 0.0
10/03:00pm 11.5 3.8 3.5 58 3.8 WSW 33 50 18 27 - - 0.0
10/02:30pm 12.7 5.6 3.6 54 4.3 WSW 30 56 16 30 - - 0.0
10/02:00pm 12.5 4.5 3.7 55 4.2 WSW 35 57 19 31 - - 0.0
10/01:32pm 12.4 3.8 2.8 52 4.5 WSW 37 56 20 30 - - 0.0
10/01:30pm 12.6 4.1 3.0 52 4.5 WSW 37 54 20 29 - - 0.0
10/01:04pm 12.8 4.7 3.5 53 4.4 W 35 54 19 29 - - 0.0
10/01:00pm 12.7 4.3 3.6 54 4.3 W 37 54 20 29 - - 0.0
10/12:32pm 12.7 5.3 4.2 56 4.1 WSW 32 50 17 27 - - 0.0
10/12:30pm 12.5 4.8 3.2 53 4.4 WSW 33 50 18 27 - - 0.0
10/12:09pm 12.6 5.0 3.0 52 4.5 WSW 32 50 17 27 - - 0.0
10/12:00pm 12.1 4.6 3.6 56 4.0 WSW 32 44 17 24 - - 0.0
10/11:30am 11.2 3.5 3.5 59 3.6 W 33 52 18 28 - - 0.0
10/11:13am 11.4 4.3 3.7 59 3.6 WSW 30 48 16 26 - - 0.0
10/11:00am 11.2 3.5 3.5 59 3.6 WSW 33 46 18 25 - - 0.0
10/10:39am 10.7 3.6 3.3 60 3.4 W 30 52 16 28 - - 0.0
10/10:30am 10.9 3.9 3.9 62 3.3 WSW 30 43 16 23 - - 0.0
10/10:00am 10.3 3.3 4.2 66 2.9 WSW 30 41 16 22 - - 0.0
10/09:30am 9.8 4.0 4.4 69 2.6 WSW 24 43 13 23 - - 0.0
10/09:12am 9.2 2.7 4.6 73 2.2 W 28 46 15 25 - - 0.0
10/09:00am 8.9 2.3 4.3 73 2.2 W 28 41 15 22 - - 0.0
10/08:30am 8.2 3.2 4.4 77 1.8 WSW 20 32 11 17 - - 0.0
10/08:00am 7.3 2.4 4.1 80 1.5 WSW 19 28 10 15 - - 0.0
10/07:30am 7.7 2.9 4.5 80 1.5 WSW 19 28 10 15 - - 0.0
10/07:00am 7.7 2.9 4.8 82 1.4 WSW 19 35 10 19 - - 0.0
10/06:30am 8.3 2.5 4.5 77 1.8 WSW 24 37 13 20 - - 0.0
10/06:00am 8.9 3.2 5.1 77 1.8 W 24 41 13 22 - - 0.0
10/05:30am 9.2 4.0 5.4 77 1.8 WSW 22 33 12 18 - - 0.0
10/05:00am 9.1 4.9 5.8 80 1.6 W 17 24 9 13 - - 0.0
10/04:30am 9.0 5.3 6.1 82 1.4 W 15 24 8 13 - - 0.0
10/04:00am 8.7 6.1 6.2 84 1.2 W 9 15 5 8 - - 0.0
10/03:30am 9.0 6.3 5.7 80 1.6 W 9 13 5 7 - - 0.0
10/03:00am 10.0 5.9 6.0 76 2.0 W 17 26 9 14 - - 0.0
10/02:30am 9.5 6.5 6.0 79 1.7 W 11 17 6 9 - - 0.0
10/02:00am 9.9 7.5 6.8 81 1.6 WSW 9 15 5 8 - - 0.0
10/01:30am 10.3 7.5 6.8 79 1.8 WSW 11 15 6 8 - - 0.0
10/01:00am 10.6 8.2 6.9 78 1.9 WSW 9 15 5 8 - - 0.0
10/12:30am 11.2 8.0 6.9 75 2.2 WSW 13 20 7 11 - - 0.0
10/12:00am 11.6 8.0 6.9 73 2.4 WSW 15 19 8 10 - - 0.0
 
Date/Time
EST
Temp
°C
App
Temp
°C
Dew
Point
°C
Rel
Hum
%
Delta-T
°C
Wind Press
QNH
hPa
Press
MSL
hPa
Rain since
9am
mm
Dir  Spd
km/h
Gust
km/h
Spd
kts
Gust
kts
09/11:30pm 11.7 8.5 7.0 73 2.4 WSW 13 19 7 10 - - 0.0
09/11:00pm 12.5 9.0 7.0 69 2.8 WSW 15 24 8 13 - - 0.0
09/10:30pm 13.3 8.4 7.1 66 3.2 WSW 22 39 12 21 - - 0.0
09/10:00pm 13.6 8.9 7.6 67 3.1 WSW 22 32 12 17 - - 0.0
09/09:30pm 13.5 9.4 7.7 68 3.0 WSW 19 26 10 14 - - 0.0
09/09:00pm 14.0 10.4 8.2 68 3.1 WSW 17 26 9 14 - - 0.0
09/08:30pm 14.7 10.4 8.0 64 3.5 WSW 20 35 11 19 - - 0.0
09/08:00pm 15.4 10.4 7.9 61 4.0 WSW 24 44 13 24 - - 0.0
09/07:30pm 15.6 10.8 7.4 58 4.3 WSW 22 39 12 21 - - 0.0
09/07:00pm 15.9 10.7 7.1 56 4.6 WSW 24 32 13 17 - - 0.0
09/06:30pm 16.3 11.2 6.2 51 5.2 WSW 22 39 12 21 - - 0.0
09/06:00pm 16.6 12.1 5.9 49 5.5 WSW 19 26 10 14 - - 0.0
09/05:38pm 17.7 11.4 5.6 45 6.2 WSW 28 48 15 26 - - 0.0
09/05:30pm 17.8 11.9 5.7 45 6.2 WSW 26 43 14 23 - - 0.0
09/05:17pm 18.2 11.8 5.4 43 6.6 WSW 28 46 15 25 - - 0.0
09/05:00pm 18.7 12.4 5.9 43 6.7 WSW 28 44 15 24 - - 0.0
09/04:30pm 19.4 11.6 4.7 38 7.5 W 35 57 19 31 - - 0.0
09/04:00pm 19.9 11.6 4.4 36 7.9 WSW 37 56 20 30 - - 0.0
09/03:30pm 19.3 11.5 3.1 34 8.0 WSW 33 56 18 30 - - 0.0
09/03:00pm 19.3 11.7 3.1 34 8.0 W 32 57 17 31 - - 0.0
09/02:54pm 19.9 13.1 3.2 33 8.3 W 28 48 15 26 - - 0.0
09/02:30pm 20.6 14.8 4.6 35 8.2 WSW 24 39 13 21 - - 0.0
09/02:01pm 19.9 12.2 5.2 38 7.6 WSW 35 57 19 31 - - 0.0
09/02:00pm 19.9 12.2 5.2 38 7.6 WSW 35 52 19 28 - - 0.0
09/01:34pm 20.1 12.8 5.4 38 7.6 WSW 33 61 18 33 - - 0.0
09/01:30pm 20.0 13.1 6.4 41 7.2 WSW 32 48 17 26 - - 0.0
09/01:00pm 19.8 13.0 7.5 45 6.6 WSW 33 52 18 28 - - 0.0
09/12:37pm 19.2 14.1 10.7 58 4.9 W 28 46 15 25 - - 0.0
09/12:30pm 18.9 13.4 10.5 58 4.8 W 30 44 16 24 - - 0.0
09/12:11pm 19.3 13.8 10.6 57 5.0 WSW 30 54 16 29 - - 0.0
09/12:00pm 18.7 13.7 10.8 60 4.5 W 28 44 15 24 - - 0.0
09/11:35am 18.6 13.5 10.7 60 4.5 W 28 46 15 25 - - 0.0
09/11:30am 18.1 13.7 11.7 66 3.7 W 26 46 14 25 - - 0.0
09/11:21am 17.3 12.2 10.7 65 3.7 W 28 52 15 28 - - 0.0
09/11:00am 18.0 14.2 12.5 70 3.2 WSW 24 41 13 22 - - 0.0
09/10:30am 16.0 12.5 12.2 78 2.2 WSW 22 33 12 18 - - 0.0
09/10:00am 14.3 10.9 10.7 79 2.0 WSW 19 28 10 15 - - 0.0
09/09:30am 14.1 10.7 10.5 79 2.0 W 19 26 10 14 - - 0.0
09/09:00am 14.3 9.8 10.1 76 2.3 W 24 35 13 19 - - 0.4
09/08:30am 14.0 10.1 9.6 75 2.4 W 20 37 11 20 - - 0.4
09/08:00am 14.0 10.1 9.6 75 2.4 W 20 35 11 19 - - 0.4
09/07:30am 13.7 10.1 9.7 77 2.2 WSW 19 28 10 15 - - 0.4
09/07:00am 13.3 10.1 9.9 80 1.9 W 17 26 9 14 - - 0.4
09/06:30am 12.4 9.3 10.3 87 1.1 WSW 17 28 9 15 - - 0.4
09/06:00am 11.9 8.9 10.5 91 0.8 WSW 17 22 9 12 - - 0.4
09/05:30am 12.0 8.6 10.7 92 0.7 WSW 19 24 10 13 - - 0.4
09/05:00am 11.7 9.4 10.6 93 0.6 WSW 13 17 7 9 - - 0.4
09/04:30am 12.0 9.4 10.7 92 0.7 WSW 15 17 8 9 - - 0.4
09/04:00am 12.0 9.4 10.7 92 0.7 WSW 15 19 8 10 - - 0.4
09/03:30am 12.3 9.4 11.0 92 0.7 WSW 17 20 9 11 - - 0.2
09/03:00am 12.5 9.7 11.2 92 0.7 W 17 22 9 12 - - 0.2
09/02:30am 12.4 9.7 11.8 96 0.3 WSW 17 20 9 11 - - 0.2
09/02:00am 12.2 10.3 11.7 97 0.3 WSW 13 19 7 10 - - 0.2
09/01:30am 12.4 10.5 11.8 96 0.3 WSW 13 17 7 9 - - 0.2
09/01:00am 12.6 11.2 12.1 97 0.3 WSW 11 15 6 8 - - 0.2
09/12:30am 12.8 11.0 12.0 95 0.5 WSW 13 15 7 8 - - 0.2
09/12:00am 13.0 12.0 12.2 95 0.5 WSW 9 13 5 7 - - 0.2
 
Date/Time
EST
Temp
°C
App
Temp
°C
Dew
Point
°C
Rel
Hum
%
Delta-T
°C
Wind Press
QNH
hPa
Press
MSL
hPa
Rain since
9am
mm
Dir  Spd
km/h
Gust
km/h
Spd
kts
Gust
kts
08/11:30pm 13.1 12.2 12.5 96 0.3 WSW 9 13 5 7 - - 0.2
08/11:00pm 13.1 12.6 12.5 96 0.3 WSW 7 11 4 6 - - 0.2
08/10:30pm 13.2 12.2 12.4 95 0.5 W 9 13 5 7 - - 0.2
08/10:00pm 13.3 12.5 11.7 90 0.9 NW 7 11 4 6 - - 0.2
08/09:30pm 14.0 13.2 12.9 93 0.6 N 9 13 5 7 - - 0.2
08/09:00pm 13.7 12.9 12.8 94 0.5 NNW 9 13 5 7 - - 0.2
08/08:30pm 13.5 12.7 13.0 97 0.3 NE 9 13 5 7 - - 0.2
08/08:28pm 13.5 12.7 13.0 97 0.3 NE 9 13 5 7 - - 0.2
08/08:09pm 13.7 12.6 13.2 97 0.3 NE 11 15 6 8 - - 0.2
08/08:00pm 13.8 13.1 13.3 97 0.3 ENE 9 13 5 7 - - 0.2
08/07:54pm 13.7 13.0 13.1 96 0.3 ENE 9 13 5 7 - - 0.2
08/07:30pm 13.7 12.9 12.9 95 0.5 ENE 9 13 5 7 - - 0.2
08/07:29pm 13.7 12.9 12.9 95 0.5 ENE 9 13 5 7 - - 0.2
08/07:00pm 13.9 13.4 12.8 93 0.6 NE 7 9 4 5 - - 0.2
08/06:30pm 14.3 13.8 12.5 89 1.0 ENE 7 11 4 6 - - 0.2
08/06:00pm 14.8 14.1 12.1 84 1.5 ENE 7 13 4 7 - - 0.2
08/05:30pm 16.2 15.5 12.0 76 2.4 ENE 7 13 4 7 - - 0.2

Latest Capital City Observations: Canberra | Sydney | Melbourne | Brisbane | Adelaide | Perth | Hobart | Darwin

Other formats

Comma delimited format used in spreadsheet applications
http://www.bom.gov.au/fwo/IDN60901/IDN60901.94743.axf

JavaScript Object Notation format (JSON) in row-major order
http://www.bom.gov.au/fwo/IDN60901/IDN60901.94743.json

Data quality

Most of these data are generated automatically and are frequently updated. Quality checks on data are not normally performed. It is possible for incorrect values to appear. Refer to information at About Latest Weather Observations and please check the disclaimer before using these data.